sensor_id;sensor_type;location;lat;lon;timestamp;pressure;altitude;pressure_sealevel;temperature;humidity
16194;BME280;8204;53.582;10.080;2023-01-25T00:01:55;103303.69;;;3.73;100.00
16194;BME280;8204;53.582;10.080;2023-01-25T00:04:24;103297.78;;;3.69;100.00
16194;BME280;8204;53.582;10.080;2023-01-25T00:06:53;103298.66;;;3.68;100.00
16194;BME280;8204;53.582;10.080;2023-01-25T00:09:23;103296.97;;;3.67;100.00
16194;BME280;8204;53.582;10.080;2023-01-25T00:11:52;103299.56;;;3.67;100.00
16194;BME280;8204;53.582;10.080;2023-01-25T00:14:23;103293.47;;;3.68;100.00
16194;BME280;8204;53.582;10.080;2023-01-25T00:16:55;103290.00;;;3.69;100.00
16194;BME280;8204;53.582;10.080;2023-01-25T00:19:23;103286.81;;;3.61;100.00
16194;BME280;8204;53.582;10.080;2023-01-25T00:21:52;103289.56;;;3.57;100.00
16194;BME280;8204;53.582;10.080;2023-01-25T00:24:21;103287.25;;;3.50;100.00
16194;BME280;8204;53.582;10.080;2023-01-25T00:26:50;103270.81;;;3.49;100.00
16194;BME280;8204;53.582;10.080;2023-01-25T00:29:20;103275.09;;;3.52;100.00
16194;BME280;8204;53.582;10.080;2023-01-25T00:31:57;103283.75;;;3.51;100.00
16194;BME280;8204;53.582;10.080;2023-01-25T00:34:44;103283.78;;;3.49;100.00
16194;BME280;8204;53.582;10.080;2023-01-25T00:37:19;103266.50;;;3.50;100.00
16194;BME280;8204;53.582;10.080;2023-01-25T00:39:51;103283.63;;;3.54;100.00
16194;BME280;8204;53.582;10.080;2023-01-25T00:42:20;103277.63;;;3.53;100.00
16194;BME280;8204;53.582;10.080;2023-01-25T00:44:48;103273.47;;;3.48;100.00
16194;BME280;8204;53.582;10.080;2023-01-25T00:47:20;103260.72;;;3.42;100.00
16194;BME280;8204;53.582;10.080;2023-01-25T00:49:49;103261.53;;;3.44;100.00
16194;BME280;8204;53.582;10.080;2023-01-25T00:52:18;103253.75;;;3.44;100.00
16194;BME280;8204;53.582;10.080;2023-01-25T00:54:48;103260.66;;;3.43;100.00
16194;BME280;8204;53.582;10.080;2023-01-25T00:57:16;103247.78;;;3.42;100.00
16194;BME280;8204;53.582;10.080;2023-01-25T00:59:45;103241.75;;;3.41;100.00
16194;BME280;8204;53.582;10.080;2023-01-25T01:02:14;103241.63;;;3.44;100.00
16194;BME280;8204;53.582;10.080;2023-01-25T01:04:45;103233.03;;;3.44;100.00
16194;BME280;8204;53.582;10.080;2023-01-25T01:07:14;103234.75;;;3.43;100.00
16194;BME280;8204;53.582;10.080;2023-01-25T01:09:43;103232.13;;;3.45;100.00
16194;BME280;8204;53.582;10.080;2023-01-25T01:12:11;103239.09;;;3.43;100.00
16194;BME280;8204;53.582;10.080;2023-01-25T01:14:40;103241.00;;;3.38;100.00
16194;BME280;8204;53.582;10.080;2023-01-25T01:17:10;103228.09;;;3.36;100.00
16194;BME280;8204;53.582;10.080;2023-01-25T01:19:38;103216.81;;;3.39;100.00
16194;BME280;8204;53.582;10.080;2023-01-25T01:22:10;103227.09;;;3.40;100.00
16194;BME280;8204;53.582;10.080;2023-01-25T01:24:39;103225.56;;;3.35;100.00
16194;BME280;8204;53.582;10.080;2023-01-25T01:27:07;103225.56;;;3.35;100.00
16194;BME280;8204;53.582;10.080;2023-01-25T01:29:36;103208.31;;;3.34;100.00
16194;BME280;8204;53.582;10.080;2023-01-25T01:32:05;103221.34;;;3.32;100.00
16194;BME280;8204;53.582;10.080;2023-01-25T01:34:34;103213.72;;;3.28;100.00
16194;BME280;8204;53.582;10.080;2023-01-25T01:37:03;103205.84;;;3.31;100.00
16194;BME280;8204;53.582;10.080;2023-01-25T01:39:34;103205.88;;;3.29;100.00
16194;BME280;8204;53.582;10.080;2023-01-25T01:42:03;103205.03;;;3.29;100.00
16194;BME280;8204;53.582;10.080;2023-01-25T01:44:47;103211.94;;;3.30;100.00
16194;BME280;8204;53.582;10.080;2023-01-25T01:47:19;103212.94;;;3.26;100.00
16194;BME280;8204;53.582;10.080;2023-01-25T01:49:52;103217.19;;;3.27;100.00
16194;BME280;8204;53.582;10.080;2023-01-25T01:52:25;103222.56;;;3.22;100.00
16194;BME280;8204;53.582;10.080;2023-01-25T01:55:02;103198.44;;;3.20;100.00
16194;BME280;8204;53.582;10.080;2023-01-25T01:57:36;103203.56;;;3.22;100.00
16194;BME280;8204;53.582;10.080;2023-01-25T02:00:09;103182.00;;;3.21;100.00
16194;BME280;8204;53.582;10.080;2023-01-25T02:02:40;103176.91;;;3.18;100.00
16194;BME280;8204;53.582;10.080;2023-01-25T02:05:11;103166.72;;;3.14;100.00
16194;BME280;8204;53.582;10.080;2023-01-25T02:07:47;103163.22;;;3.15;100.00
16194;BME280;8204;53.582;10.080;2023-01-25T02:10:21;103158.84;;;3.17;100.00
16194;BME280;8204;53.582;10.080;2023-01-25T02:12:52;103155.38;;;3.16;100.00
16194;BME280;8204;53.582;10.080;2023-01-25T02:15:21;103156.34;;;3.14;100.00
16194;BME280;8204;53.582;10.080;2023-01-25T02:17:50;103150.41;;;3.12;100.00
16194;BME280;8204;53.582;10.080;2023-01-25T02:20:25;103154.72;;;3.11;100.00
16194;BME280;8204;53.582;10.080;2023-01-25T02:23:00;103152.09;;;3.13;100.00
16194;BME280;8204;53.582;10.080;2023-01-25T02:25:33;103156.47;;;3.11;100.00
16194;BME280;8204;53.582;10.080;2023-01-25T02:28:06;103159.16;;;3.08;100.00
16194;BME280;8204;53.582;10.080;2023-01-25T02:30:36;103150.56;;;3.07;100.00
16194;BME280;8204;53.582;10.080;2023-01-25T02:33:05;103151.44;;;3.06;100.00
16194;BME280;8204;53.582;10.080;2023-01-25T02:35:37;103152.28;;;3.07;100.00
16194;BME280;8204;53.582;10.080;2023-01-25T02:38:07;103135.84;;;3.08;100.00
16194;BME280;8204;53.582;10.080;2023-01-25T02:40:44;103129.91;;;3.06;100.00
16194;BME280;8204;53.582;10.080;2023-01-25T02:43:15;103129.09;;;3.04;100.00
16194;BME280;8204;53.582;10.080;2023-01-25T02:45:45;103122.97;;;3.06;100.00
16194;BME280;8204;53.582;10.080;2023-01-25T02:48:15;103123.03;;;3.05;100.00
16194;BME280;8204;53.582;10.080;2023-01-25T02:50:44;103116.94;;;3.06;100.00
16194;BME280;8204;53.582;10.080;2023-01-25T02:53:12;103123.16;;;3.00;100.00
16194;BME280;8204;53.582;10.080;2023-01-25T02:55:44;103122.44;;;2.97;100.00
16194;BME280;8204;53.582;10.080;2023-01-25T02:58:12;103110.38;;;2.96;100.00
16194;BME280;8204;53.582;10.080;2023-01-25T03:00:41;103106.09;;;2.95;100.00
16194;BME280;8204;53.582;10.080;2023-01-25T03:03:10;103101.72;;;2.97;100.00
16194;BME280;8204;53.582;10.080;2023-01-25T03:05:39;103110.38;;;2.96;100.00
16194;BME280;8204;53.582;10.080;2023-01-25T03:08:08;103104.59;;;2.89;100.00
16194;BME280;8204;53.582;10.080;2023-01-25T03:10:36;103085.59;;;2.89;100.00
16194;BME280;8204;53.582;10.080;2023-01-25T03:13:08;103096.06;;;2.86;100.00
16194;BME280;8204;53.582;10.080;2023-01-25T03:15:37;103075.47;;;2.83;100.00
16194;BME280;8204;53.582;10.080;2023-01-25T03:18:06;103079.75;;;2.84;100.00
16194;BME280;8204;53.582;10.080;2023-01-25T03:20:35;103078.03;;;2.83;100.00
16194;BME280;8204;53.582;10.080;2023-01-25T03:23:03;103084.91;;;2.84;100.00
16194;BME280;8204;53.582;10.080;2023-01-25T03:25:32;103075.59;;;2.79;100.00
16194;BME280;8204;53.582;10.080;2023-01-25T03:28:01;103081.06;;;2.71;100.00
16194;BME280;8204;53.582;10.080;2023-01-25T03:30:32;103069.13;;;2.67;100.00
16194;BME280;8204;53.582;10.080;2023-01-25T03:33:01;103064.72;;;2.69;100.00
16194;BME280;8204;53.582;10.080;2023-01-25T03:35:30;103065.63;;;2.68;100.00
16194;BME280;8204;53.582;10.080;2023-01-25T03:37:58;103058.88;;;2.64;100.00
16194;BME280;8204;53.582;10.080;2023-01-25T03:40:27;103057.19;;;2.63;100.00
16194;BME280;8204;53.582;10.080;2023-01-25T03:42:56;103051.16;;;2.63;100.00
16194;BME280;8204;53.582;10.080;2023-01-25T03:45:25;103038.09;;;2.66;100.00
16194;BME280;8204;53.582;10.080;2023-01-25T03:47:57;103051.03;;;2.66;100.00
16194;BME280;8204;53.582;10.080;2023-01-25T03:50:25;103035.53;;;2.66;100.00
16194;BME280;8204;53.582;10.080;2023-01-25T03:52:54;103041.56;;;2.66;100.00
16194;BME280;8204;53.582;10.080;2023-01-25T03:55:27;103050.16;;;2.67;100.00
16194;BME280;8204;53.582;10.080;2023-01-25T03:57:56;103048.53;;;2.64;100.00
16194;BME280;8204;53.582;10.080;2023-01-25T04:00:25;103033.00;;;2.64;100.00
16194;BME280;8204;53.582;10.080;2023-01-25T04:02:56;103057.81;;;2.70;100.00
16194;BME280;8204;53.582;10.080;2023-01-25T04:05:25;103051.16;;;2.63;100.00
16194;BME280;8204;53.582;10.080;2023-01-25T04:07:54;103055.38;;;2.65;100.00
16194;BME280;8204;53.582;10.080;2023-01-25T04:10:23;103057.09;;;2.66;100.00
16194;BME280;8204;53.582;10.080;2023-01-25T04:12:52;103059.69;;;2.65;100.00
16194;BME280;8204;53.582;10.080;2023-01-25T04:15:21;103053.75;;;2.63;100.00
16194;BME280;8204;53.582;10.080;2023-01-25T04:17:49;103058.97;;;2.61;100.00
16194;BME280;8204;53.582;10.080;2023-01-25T04:20:21;103063.25;;;2.62;100.00
16194;BME280;8204;53.582;10.080;2023-01-25T04:22:49;103071.88;;;2.63;100.00
16194;BME280;8204;53.582;10.080;2023-01-25T04:25:18;103073.81;;;2.56;100.00
16194;BME280;8204;53.582;10.080;2023-01-25T04:27:48;103076.38;;;2.56;100.00
16194;BME280;8204;53.582;10.080;2023-01-25T04:30:18;103071.34;;;2.53;100.00
16194;BME280;8204;53.582;10.080;2023-01-25T04:32:47;103067.00;;;2.54;100.00
16194;BME280;8204;53.582;10.080;2023-01-25T04:35:16;103057.31;;;2.60;100.00
16194;BME280;8204;53.582;10.080;2023-01-25T04:37:54;103067.66;;;2.60;100.00
16194;BME280;8204;53.582;10.080;2023-01-25T04:40:23;103065.97;;;2.58;100.00
16194;BME280;8204;53.582;10.080;2023-01-25T04:42:52;103060.66;;;2.62;100.00
16194;BME280;8204;53.582;10.080;2023-01-25T04:45:21;103061.59;;;2.60;100.00
16194;BME280;8204;53.582;10.080;2023-01-25T04:47:56;103048.72;;;2.58;100.00
16194;BME280;8204;53.582;10.080;2023-01-25T04:50:26;103048.72;;;2.58;100.00
16194;BME280;8204;53.582;10.080;2023-01-25T04:52:57;103056.44;;;2.60;100.00
16194;BME280;8204;53.582;10.080;2023-01-25T04:55:26;103060.81;;;2.58;100.00
16194;BME280;8204;53.582;10.080;2023-01-25T04:57:55;103059.16;;;2.55;100.00
16194;BME280;8204;53.582;10.080;2023-01-25T05:00:24;103062.56;;;2.57;100.00
16194;BME280;8204;53.582;10.080;2023-01-25T05:02:53;103054.13;;;2.52;100.00
16194;BME280;8204;53.582;10.080;2023-01-25T05:05:22;103058.41;;;2.53;100.00
16194;BME280;8204;53.582;10.080;2023-01-25T05:07:51;103061.00;;;2.53;100.00
16194;BME280;8204;53.582;10.080;2023-01-25T05:10:23;103057.59;;;2.51;100.00
16194;BME280;8204;53.582;10.080;2023-01-25T05:12:51;103057.59;;;2.51;100.00
16194;BME280;8204;53.582;10.080;2023-01-25T05:15:20;103060.19;;;2.51;100.00
16194;BME280;8204;53.582;10.080;2023-01-25T05:17:49;103065.44;;;2.48;100.00
16194;BME280;8204;53.582;10.080;2023-01-25T05:20:18;103062.13;;;2.45;100.00
16194;BME280;8204;53.582;10.080;2023-01-25T05:22:46;103062.13;;;2.45;100.00
16194;BME280;8204;53.582;10.080;2023-01-25T05:25:15;103062.03;;;2.48;100.00
16194;BME280;8204;53.582;10.080;2023-01-25T05:27:59;103053.38;;;2.49;100.00
16194;BME280;8204;53.582;10.080;2023-01-25T05:30:31;103054.25;;;2.48;100.00
16194;BME280;8204;53.582;10.080;2023-01-25T05:33:00;103063.81;;;2.46;100.00
16194;BME280;8204;53.582;10.080;2023-01-25T05:35:29;103055.38;;;2.41;100.00
16194;BME280;8204;53.582;10.080;2023-01-25T05:37:57;103051.78;;;2.45;100.00
16194;BME280;8204;53.582;10.080;2023-01-25T05:40:27;103047.53;;;2.42;100.00
16194;BME280;8204;53.582;10.080;2023-01-25T05:42:59;103050.03;;;2.45;100.00
16194;BME280;8204;53.582;10.080;2023-01-25T05:45:28;103050.19;;;2.41;100.00
16194;BME280;8204;53.582;10.080;2023-01-25T05:47:58;103045.75;;;2.44;100.00
16194;BME280;8204;53.582;10.080;2023-01-25T05:50:27;103028.13;;;2.55;100.00
16194;BME280;8204;53.582;10.080;2023-01-25T05:52:56;103038.59;;;2.52;100.00
16194;BME280;8204;53.582;10.080;2023-01-25T05:55:25;103039.50;;;2.51;100.00
16194;BME280;8204;53.582;10.080;2023-01-25T05:57:54;103047.31;;;2.50;100.00
16194;BME280;8204;53.582;10.080;2023-01-25T06:00:25;103049.16;;;2.46;100.00
16194;BME280;8204;53.582;10.080;2023-01-25T06:02:54;103032.91;;;2.41;100.00
16194;BME280;8204;53.582;10.080;2023-01-25T06:05:23;103027.75;;;2.41;100.00
16194;BME280;8204;53.582;10.080;2023-01-25T06:07:52;103022.53;;;2.43;100.00
16194;BME280;8204;53.582;10.080;2023-01-25T06:10:21;103019.06;;;2.44;100.00
16194;BME280;8204;53.582;10.080;2023-01-25T06:12:50;103029.44;;;2.42;100.00
16194;BME280;8204;53.582;10.080;2023-01-25T06:15:19;103023.38;;;2.43;100.00
16194;BME280;8204;53.582;10.080;2023-01-25T06:17:53;103025.16;;;2.41;100.00
16194;BME280;8204;53.582;10.080;2023-01-25T06:20:22;103026.03;;;2.42;100.00
16194;BME280;8204;53.582;10.080;2023-01-25T06:22:52;103025.06;;;2.44;100.00
16194;BME280;8204;53.582;10.080;2023-01-25T06:25:21;103023.28;;;2.46;100.00
16194;BME280;8204;53.582;10.080;2023-01-25T06:27:53;103019.09;;;2.42;100.00
16194;BME280;8204;53.582;10.080;2023-01-25T06:30:22;103012.97;;;2.45;100.00
16194;BME280;8204;53.582;10.080;2023-01-25T06:32:56;103019.69;;;2.50;100.00
16194;BME280;8204;53.582;10.080;2023-01-25T06:35:25;103021.38;;;2.51;100.00
16194;BME280;8204;53.582;10.080;2023-01-25T06:37:54;103026.63;;;2.48;100.00
16194;BME280;8204;53.582;10.080;2023-01-25T06:40:24;103031.94;;;2.45;100.00
16194;BME280;8204;53.582;10.080;2023-01-25T06:42:53;103022.53;;;2.43;100.00
16194;BME280;8204;53.582;10.080;2023-01-25T06:45:22;103029.50;;;2.41;100.00
16194;BME280;8204;53.582;10.080;2023-01-25T06:47:54;103033.94;;;2.37;100.00
16194;BME280;8204;53.582;10.080;2023-01-25T06:50:22;103022.69;;;2.38;100.00
16194;BME280;8204;53.582;10.080;2023-01-25T06:52:51;103023.56;;;2.37;100.00
16194;BME280;8204;53.582;10.080;2023-01-25T06:55:21;103035.63;;;2.38;100.00
16194;BME280;8204;53.582;10.080;2023-01-25T06:57:49;103027.91;;;2.37;100.00
16194;BME280;8204;53.582;10.080;2023-01-25T07:00:19;103023.78;;;2.31;100.00
16194;BME280;8204;53.582;10.080;2023-01-25T07:02:48;103022.84;;;2.34;100.00
16194;BME280;8204;53.582;10.080;2023-01-25T07:05:19;103015.97;;;2.33;100.00
16194;BME280;8204;53.582;10.080;2023-01-25T07:07:49;103011.66;;;2.33;100.00
16194;BME280;8204;53.582;10.080;2023-01-25T07:10:18;103005.00;;;2.26;100.00
16194;BME280;8204;53.582;10.080;2023-01-25T07:12:47;102991.94;;;2.29;100.00
16194;BME280;8204;53.582;10.080;2023-01-25T07:15:16;102999.63;;;2.32;100.00
16194;BME280;8204;53.582;10.080;2023-01-25T07:17:45;103004.03;;;2.29;100.00
16194;BME280;8204;53.582;10.080;2023-01-25T07:20:15;102990.22;;;2.30;100.00
16194;BME280;8204;53.582;10.080;2023-01-25T07:22:46;102989.28;;;2.32;100.00
16194;BME280;8204;53.582;10.080;2023-01-25T07:25:15;102988.47;;;2.30;100.00
16194;BME280;8204;53.582;10.080;2023-01-25T07:27:44;102989.16;;;2.35;100.00
16194;BME280;8204;53.582;10.080;2023-01-25T07:30:13;102989.28;;;2.32;100.00
16194;BME280;8204;53.582;10.080;2023-01-25T07:32:42;102975.66;;;2.27;100.00
16194;BME280;8204;53.582;10.080;2023-01-25T07:35:11;102976.50;;;2.28;100.00
16194;BME280;8204;53.582;10.080;2023-01-25T07:37:40;102968.44;;;2.37;100.00
16194;BME280;8204;53.582;10.080;2023-01-25T07:40:12;102967.47;;;2.39;100.00
16194;BME280;8204;53.582;10.080;2023-01-25T07:42:41;102975.31;;;2.36;100.00
16194;BME280;8204;53.582;10.080;2023-01-25T07:45:10;102973.69;;;2.34;100.00
16194;BME280;8204;53.582;10.080;2023-01-25T07:47:39;102978.03;;;2.33;100.00
16194;BME280;8204;53.582;10.080;2023-01-25T07:50:10;102970.28;;;2.33;100.00
16194;BME280;8204;53.582;10.080;2023-01-25T07:52:39;102967.63;;;2.35;100.00
16194;BME280;8204;53.582;10.080;2023-01-25T07:55:11;102961.63;;;2.34;100.00
16194;BME280;8204;53.582;10.080;2023-01-25T07:57:40;102960.69;;;2.35;100.00
16194;BME280;8204;53.582;10.080;2023-01-25T08:00:10;102952.84;;;2.38;100.00
16194;BME280;8204;53.582;10.080;2023-01-25T08:02:39;102944.19;;;2.39;100.00
16194;BME280;8204;53.582;10.080;2023-01-25T08:05:08;102940.66;;;2.42;100.00
16194;BME280;8204;53.582;10.080;2023-01-25T08:07:37;102941.59;;;2.39;100.00
16194;BME280;8204;53.582;10.080;2023-01-25T08:10:07;102935.75;;;2.34;100.00
16194;BME280;8204;53.582;10.080;2023-01-25T08:12:38;102930.00;;;2.26;100.00
16194;BME280;8204;53.582;10.080;2023-01-25T08:15:07;102915.25;;;2.28;100.00
16194;BME280;8204;53.582;10.080;2023-01-25T08:17:36;102919.53;;;2.29;100.00
16194;BME280;8204;53.582;10.080;2023-01-25T08:20:06;102924.69;;;2.31;100.00
16194;BME280;8204;53.582;10.080;2023-01-25T08:22:35;102918.41;;;2.36;100.00
16194;BME280;8204;53.582;10.080;2023-01-25T08:25:05;102920.13;;;2.37;100.00
16194;BME280;8204;53.582;10.080;2023-01-25T08:27:34;102916.63;;;2.38;100.00
16194;BME280;8204;53.582;10.080;2023-01-25T08:30:07;102925.41;;;2.34;100.00
16194;BME280;8204;53.582;10.080;2023-01-25T08:32:38;102922.03;;;2.32;100.00
16194;BME280;8204;53.582;10.080;2023-01-25T08:35:07;102915.06;;;2.34;100.00
16194;BME280;8204;53.582;10.080;2023-01-25T08:37:36;102914.13;;;2.35;100.00
16194;BME280;8204;53.582;10.080;2023-01-25T08:40:06;102918.63;;;2.30;100.00
16194;BME280;8204;53.582;10.080;2023-01-25T08:42:34;102911.22;;;2.21;100.00
16194;BME280;8204;53.582;10.080;2023-01-25T08:45:07;102904.28;;;2.22;100.00
16194;BME280;8204;53.582;10.080;2023-01-25T08:47:36;102892.19;;;2.22;100.00
16194;BME280;8204;53.582;10.080;2023-01-25T08:50:06;102883.47;;;2.25;100.00
16194;BME280;8204;53.582;10.080;2023-01-25T08:52:35;102883.38;;;2.28;100.00
16194;BME280;8204;53.582;10.080;2023-01-25T08:55:04;102882.72;;;2.23;100.00
16194;BME280;8204;53.582;10.080;2023-01-25T08:57:33;102881.09;;;2.20;100.00
16194;BME280;8204;53.582;10.080;2023-01-25T09:00:03;102876.69;;;2.22;100.00
16194;BME280;8204;53.582;10.080;2023-01-25T09:02:34;102875.91;;;2.20;100.00
16194;BME280;8204;53.582;10.080;2023-01-25T09:05:04;102874.09;;;2.22;100.00
16194;BME280;8204;53.582;10.080;2023-01-25T09:07:33;102868.16;;;2.20;100.00
16194;BME280;8204;53.582;10.080;2023-01-25T09:10:04;102860.41;;;2.20;100.00
16194;BME280;8204;53.582;10.080;2023-01-25T09:12:33;102849.19;;;2.20;100.00
16194;BME280;8204;53.582;10.080;2023-01-25T09:15:03;102855.22;;;2.20;100.00
16194;BME280;8204;53.582;10.080;2023-01-25T09:17:35;102856.28;;;2.15;100.00
16194;BME280;8204;53.582;10.080;2023-01-25T09:20:05;102852.78;;;2.16;100.00
16194;BME280;8204;53.582;10.080;2023-01-25T09:22:35;102856.19;;;2.18;100.00
16194;BME280;8204;53.582;10.080;2023-01-25T09:25:06;102848.22;;;2.22;100.00
16194;BME280;8204;53.582;10.080;2023-01-25T09:27:34;102842.97;;;2.25;100.00
16194;BME280;8204;53.582;10.080;2023-01-25T09:30:04;102842.84;;;2.28;100.00
16194;BME280;8204;53.582;10.080;2023-01-25T09:32:36;102835.16;;;2.27;100.00
16194;BME280;8204;53.582;10.080;2023-01-25T09:35:06;102837.63;;;2.30;100.00
16194;BME280;8204;53.582;10.080;2023-01-25T09:37:35;102828.06;;;2.32;100.00
16194;BME280;8204;53.582;10.080;2023-01-25T09:40:05;102833.97;;;2.35;100.00
16194;BME280;8204;53.582;10.080;2023-01-25T09:42:43;102844.22;;;2.38;100.00
16194;BME280;8204;53.582;10.080;2023-01-25T09:45:29;102854.13;;;2.26;100.00
16194;BME280;8204;53.582;10.080;2023-01-25T09:48:12;102842.16;;;2.23;100.00
16194;BME280;8204;53.582;10.080;2023-01-25T09:50:58;102844.75;;;2.23;100.00
16194;BME280;8204;53.582;10.080;2023-01-25T09:53:32;102834.53;;;2.20;100.00
16194;BME280;8204;53.582;10.080;2023-01-25T09:56:03;102829.13;;;2.26;100.00
16194;BME280;8204;53.582;10.080;2023-01-25T09:58:39;102825.66;;;2.27;100.00
16194;BME280;8204;53.582;10.080;2023-01-25T10:01:16;102815.19;;;2.30;100.00
16194;BME280;8204;53.582;10.080;2023-01-25T10:03:53;102816.16;;;2.28;100.00
16194;BME280;8204;53.582;10.080;2023-01-25T10:06:30;102813.25;;;2.35;100.00
16194;BME280;8204;53.582;10.080;2023-01-25T10:09:10;102814.97;;;2.36;100.00
16194;BME280;8204;53.582;10.080;2023-01-25T10:11:41;102814.94;;;2.38;100.00
16194;BME280;8204;53.582;10.080;2023-01-25T10:14:13;102815.63;;;2.41;100.00
16194;BME280;8204;53.582;10.080;2023-01-25T10:16:49;102822.47;;;2.44;100.00
16194;BME280;8204;53.582;10.080;2023-01-25T10:19:31;102829.34;;;2.43;100.00
16194;BME280;8204;53.582;10.080;2023-01-25T10:22:11;102825.97;;;2.41;100.00
16194;BME280;8204;53.582;10.080;2023-01-25T10:25:02;102809.53;;;2.44;100.00
16194;BME280;8204;53.582;10.080;2023-01-25T10:27:41;102806.38;;;2.36;100.00
16194;BME280;8204;53.582;10.080;2023-01-25T10:30:21;102797.22;;;2.27;100.00
16194;BME280;8204;53.582;10.080;2023-01-25T10:32:54;102796.28;;;2.28;100.00
16194;BME280;8204;53.582;10.080;2023-01-25T10:35:33;102802.25;;;2.30;100.00
16194;BME280;8204;53.582;10.080;2023-01-25T10:38:08;102791.97;;;2.29;100.00
16194;BME280;8204;53.582;10.080;2023-01-25T10:40:42;102779.94;;;2.28;100.00
16194;BME280;8204;53.582;10.080;2023-01-25T10:43:17;102766.84;;;2.32;100.00
16194;BME280;8204;53.582;10.080;2023-01-25T10:45:46;102757.09;;;2.39;100.00
16194;BME280;8204;53.582;10.080;2023-01-25T10:48:18;102751.59;;;2.48;100.00
16194;BME280;8204;53.582;10.080;2023-01-25T10:50:52;102753.34;;;2.47;100.00
16194;BME280;8204;53.582;10.080;2023-01-25T10:53:25;102768.97;;;2.44;100.00
16194;BME280;8204;53.582;10.080;2023-01-25T10:55:57;102761.13;;;2.46;100.00
16194;BME280;8204;53.582;10.080;2023-01-25T10:58:33;102747.25;;;2.48;100.00
16194;BME280;8204;53.582;10.080;2023-01-25T11:01:04;102738.72;;;2.46;100.00
16194;BME280;8204;53.582;10.080;2023-01-25T11:03:36;102732.66;;;2.47;100.00
16194;BME280;8204;53.582;10.080;2023-01-25T11:06:08;102725.59;;;2.51;100.00
16194;BME280;8204;53.582;10.080;2023-01-25T11:08:38;102732.75;;;2.44;100.00
16194;BME280;8204;53.582;10.080;2023-01-25T11:11:16;102725.72;;;2.48;100.00
16194;BME280;8204;53.582;10.080;2023-01-25T11:13:51;102716.25;;;2.47;100.00
16194;BME280;8204;53.582;10.080;2023-01-25T11:16:29;102697.56;;;2.40;100.00
16194;BME280;8204;53.582;10.080;2023-01-25T11:19:00;102694.06;;;2.41;100.00
16194;BME280;8204;53.582;10.080;2023-01-25T11:21:33;102687.97;;;2.42;100.00
16194;BME280;8204;53.582;10.080;2023-01-25T11:24:15;102692.31;;;2.42;100.00
16194;BME280;8204;53.582;10.080;2023-01-25T11:26:44;102685.47;;;2.41;100.00
16194;BME280;8204;53.582;10.080;2023-01-25T11:29:15;102674.41;;;2.37;100.00
16194;BME280;8204;53.582;10.080;2023-01-25T11:31:46;102673.50;;;2.38;100.00
16194;BME280;8204;53.582;10.080;2023-01-25T11:34:17;102676.31;;;2.32;100.00
16194;BME280;8204;53.582;10.080;2023-01-25T11:37:00;102655.31;;;2.40;100.00
16194;BME280;8204;53.582;10.080;2023-01-25T11:39:45;102663.00;;;2.41;100.00
16194;BME280;8204;53.582;10.080;2023-01-25T11:42:25;102649.19;;;2.42;100.00
16194;BME280;8204;53.582;10.080;2023-01-25T11:45:27;102637.88;;;2.45;100.00
16194;BME280;8204;53.582;10.080;2023-01-25T11:48:10;102650.03;;;2.43;100.00
16194;BME280;8204;53.582;10.080;2023-01-25T11:50:44;102638.00;;;2.42;100.00
16194;BME280;8204;53.582;10.080;2023-01-25T11:53:27;102631.94;;;2.43;100.00
16194;BME280;8204;53.582;10.080;2023-01-25T11:56:09;102624.91;;;2.46;100.00
16194;BME280;8204;53.582;10.080;2023-01-25T11:58:55;102619.72;;;2.46;100.00
16194;BME280;8204;53.582;10.080;2023-01-25T12:01:33;102620.06;;;2.37;100.00
16194;BME280;8204;53.582;10.080;2023-01-25T12:07:11;102591.56;;;2.39;100.00
16194;BME280;8204;53.582;10.080;2023-01-25T12:09:55;102579.22;;;2.45;100.00
16194;BME280;8204;53.582;10.080;2023-01-25T12:12:36;102562.75;;;2.48;100.00
16194;BME280;8204;53.582;10.080;2023-01-25T12:18:39;102606.91;;;2.43;100.00
16194;BME280;8204;53.582;10.080;2023-01-25T12:21:21;102593.97;;;2.43;100.00
16194;BME280;8204;53.582;10.080;2023-01-25T12:24:03;102580.97;;;2.45;100.00
16194;BME280;8204;53.582;10.080;2023-01-25T12:26:45;102572.69;;;2.37;100.00
16194;BME280;8204;53.582;10.080;2023-01-25T12:29:23;102564.16;;;2.35;100.00
16194;BME280;8204;53.582;10.080;2023-01-25T12:31:57;102556.56;;;2.30;100.00
16194;BME280;8204;53.582;10.080;2023-01-25T12:34:32;102553.19;;;2.28;100.00
16194;BME280;8204;53.582;10.080;2023-01-25T12:37:09;102536.75;;;2.31;100.00
16194;BME280;8204;53.582;10.080;2023-01-25T12:39:44;102535.88;;;2.30;100.00
16194;BME280;8204;53.582;10.080;2023-01-25T12:42:20;102530.00;;;2.27;100.00
16194;BME280;8204;53.582;10.080;2023-01-25T12:44:54;102519.53;;;2.30;100.00
16194;BME280;8204;53.582;10.080;2023-01-25T12:47:30;102508.94;;;2.36;100.00
16194;BME280;8204;53.582;10.080;2023-01-25T12:50:10;102525.16;;;2.39;100.00
16194;BME280;8204;53.582;10.080;2023-01-25T12:52:45;102526.84;;;2.40;100.00
16194;BME280;8204;53.582;10.080;2023-01-25T12:55:16;102523.47;;;2.38;100.00
16194;BME280;8204;53.582;10.080;2023-01-25T12:57:54;102507.81;;;2.41;100.00
16194;BME280;8204;53.582;10.080;2023-01-25T13:00:30;102502.16;;;2.33;100.00
16194;BME280;8204;53.582;10.080;2023-01-25T13:03:17;102497.16;;;2.29;100.00
16194;BME280;8204;53.582;10.080;2023-01-25T13:05:50;102494.75;;;2.24;100.00
16194;BME280;8204;53.582;10.080;2023-01-25T13:08:30;102487.09;;;2.23;100.00
16194;BME280;8204;53.582;10.080;2023-01-25T13:11:10;102469.81;;;2.23;100.00
